Time;durP1;ratioP1;P1;durP2;ratioP2;P2;SDS_P1;SDS_P2;PMS_P1;PMS_P2;Temp;Humidity;BMP_temperature;BMP_pressure;BME280_temperature;BME280_humidity;BME280_pressure;Samples;Min_cycle;Max_cycle;Signal;HPM_P1;HPM_P2
2024/01/05 00:00:48;;;;;;;12.40;7.55;;;;;;;;;;5046430;28;21875;-65
2024/01/05 00:03:14;;;;;;;12.85;7.32;;;;;;;;;;5046930;28;20044;-65
2024/01/05 00:05:40;;;;;;;13.98;8.25;;;;;;;;;;5047186;28;20831;-65
2024/01/05 00:08:06;;;;;;;11.55;6.45;;;;;;;;;;5046769;28;20024;-65
2024/01/05 00:10:32;;;;;;;13.20;7.50;;;;;;;;;;5045651;28;20427;-65
2024/01/05 00:12:58;;;;;;;12.02;7.43;;;;;;;;;;5060204;28;20035;-65
2024/01/05 00:15:24;;;;;;;13.85;7.28;;;;;;;;;;5046473;28;20170;-65
2024/01/05 00:17:50;;;;;;;14.32;7.63;;;;;;;;;;5045538;28;20045;-65
2024/01/05 00:20:16;;;;;;;13.18;7.65;;;;;;;;;;5046360;28;20627;-65
2024/01/05 00:22:42;;;;;;;13.43;7.82;;;;;;;;;;5045768;28;20035;-65
2024/01/05 00:25:08;;;;;;;18.00;8.00;;;;;;;;;;5046137;28;20025;-65
2024/01/05 00:27:35;;;;;;;13.52;7.65;;;;;;;;;;5046380;28;21798;-65
2024/01/05 00:30:01;;;;;;;14.65;7.55;;;;;;;;;;5045794;28;20020;-65
2024/01/05 00:32:27;;;;;;;12.50;7.07;;;;;;;;;;5043446;28;20055;-65
2024/01/05 00:34:53;;;;;;;14.50;7.72;;;;;;;;;;5046194;28;20024;-65
2024/01/05 00:37:19;;;;;;;16.15;8.85;;;;;;;;;;5046532;28;20441;-65
2024/01/05 00:39:46;;;;;;;13.38;7.28;;;;;;;;;;5046491;28;20115;-65
2024/01/05 00:42:12;;;;;;;13.05;6.85;;;;;;;;;;5046088;28;20717;-65
2024/01/05 00:44:40;;;;;;;13.75;7.50;;;;;;;;;;5045512;28;20032;-65
2024/01/05 00:47:06;;;;;;;17.52;8.50;;;;;;;;;;5060536;28;20057;-65
2024/01/05 00:49:32;;;;;;;13.20;7.82;;;;;;;;;;5044609;28;20028;-65
2024/01/05 00:51:58;;;;;;;15.95;8.35;;;;;;;;;;5044473;28;20036;-66
2024/01/05 00:54:25;;;;;;;15.52;7.85;;;;;;;;;;5044925;28;20041;-65
2024/01/05 00:56:51;;;;;;;14.65;8.25;;;;;;;;;;5045638;28;20051;-65
2024/01/05 00:59:20;;;;;;;13.93;7.82;;;;;;;;;;5046521;28;20291;-65
2024/01/05 01:01:47;;;;;;;17.35;8.70;;;;;;;;;;5046811;28;20087;-65
2024/01/05 01:04:13;;;;;;;15.07;8.25;;;;;;;;;;5045626;28;20036;-65
2024/01/05 01:06:39;;;;;;;14.25;8.65;;;;;;;;;;5046513;28;20031;-65
2024/01/05 01:09:05;;;;;;;14.63;8.77;;;;;;;;;;5045949;28;20043;-65
2024/01/05 01:11:31;;;;;;;15.50;7.55;;;;;;;;;;5045635;28;20040;-64
2024/01/05 01:13:57;;;;;;;14.75;8.25;;;;;;;;;;5046045;28;20539;-65
2024/01/05 01:16:23;;;;;;;15.45;8.35;;;;;;;;;;5045425;28;20032;-65
2024/01/05 01:18:49;;;;;;;13.73;8.48;;;;;;;;;;5044557;28;20115;-65
2024/01/05 01:21:15;;;;;;;13.55;8.02;;;;;;;;;;5044159;28;20036;-65
2024/01/05 01:23:41;;;;;;;17.73;7.97;;;;;;;;;;5059381;28;20040;-65
2024/01/05 01:26:07;;;;;;;16.63;8.40;;;;;;;;;;5045824;28;20032;-65
2024/01/05 01:28:33;;;;;;;17.77;8.23;;;;;;;;;;5045209;28;20028;-64
2024/01/05 01:31:00;;;;;;;16.98;8.38;;;;;;;;;;5043668;28;20056;-65
2024/01/05 01:33:26;;;;;;;15.80;7.93;;;;;;;;;;5043088;28;20028;-65
2024/01/05 01:35:52;;;;;;;15.52;8.55;;;;;;;;;;5043682;28;21831;-64
2024/01/05 01:38:18;;;;;;;17.38;8.82;;;;;;;;;;5044884;28;20744;-65
2024/01/05 01:40:47;;;;;;;16.02;8.20;;;;;;;;;;5044921;28;20498;-65
2024/01/05 01:43:21;;;;;;;15.65;8.75;;;;;;;;;;5044719;28;20070;-65
2024/01/05 01:45:48;;;;;;;14.02;8.20;;;;;;;;;;5044435;28;20702;-65
2024/01/05 01:48:15;;;;;;;16.17;8.38;;;;;;;;;;5045560;28;21041;-65
2024/01/05 01:50:41;;;;;;;16.15;8.48;;;;;;;;;;5045141;28;20108;-65
2024/01/05 01:53:07;;;;;;;18.00;8.93;;;;;;;;;;5044680;28;20499;-65
2024/01/05 01:55:33;;;;;;;14.77;8.25;;;;;;;;;;5044059;28;20736;-65
2024/01/05 01:57:59;;;;;;;15.07;7.85;;;;;;;;;;5045488;28;21741;-65
2024/01/05 02:00:25;;;;;;;13.50;7.68;;;;;;;;;;5045500;28;20032;-65
2024/01/05 02:02:52;;;;;;;15.60;8.82;;;;;;;;;;5044063;28;20059;-65
2024/01/05 02:05:18;;;;;;;16.15;8.50;;;;;;;;;;5045359;28;22481;-65
2024/01/05 02:07:44;;;;;;;18.30;8.38;;;;;;;;;;5044239;28;21718;-65
2024/01/05 02:10:10;;;;;;;16.50;7.88;;;;;;;;;;5045520;28;20047;-65
2024/01/05 02:12:36;;;;;;;17.85;7.47;;;;;;;;;;5045302;28;20028;-65
2024/01/05 02:15:02;;;;;;;17.50;7.63;;;;;;;;;;5044959;28;20146;-65
2024/01/05 02:17:33;;;;;;;12.02;7.32;;;;;;;;;;5044277;28;20043;-65
2024/01/05 02:20:00;;;;;;;13.40;7.60;;;;;;;;;;5043979;28;20042;-65
2024/01/05 02:22:30;;;;;;;14.80;8.30;;;;;;;;;;5043475;28;20036;-65
2024/01/05 02:24:59;;;;;;;18.80;8.48;;;;;;;;;;5043785;28;20040;-65
2024/01/05 02:27:26;;;;;;;18.10;7.60;;;;;;;;;;5057081;28;20067;-65
2024/01/05 02:29:52;;;;;;;16.98;8.38;;;;;;;;;;5044318;28;20096;-65
2024/01/05 02:32:18;;;;;;;17.73;8.00;;;;;;;;;;5044186;28;20905;-64
2024/01/05 02:34:44;;;;;;;16.25;8.85;;;;;;;;;;5045267;28;20036;-65
2024/01/05 02:37:11;;;;;;;21.23;9.10;;;;;;;;;;5043405;28;20090;-65
2024/01/05 02:39:37;;;;;;;17.40;8.40;;;;;;;;;;5043720;28;20061;-64
2024/01/05 02:42:03;;;;;;;15.93;8.05;;;;;;;;;;5043384;28;20089;-64
2024/01/05 02:44:29;;;;;;;19.48;10.02;;;;;;;;;;5044588;28;20034;-64
2024/01/05 02:46:55;;;;;;;15.60;7.68;;;;;;;;;;5044013;28;20028;-64
2024/01/05 02:49:21;;;;;;;14.32;8.38;;;;;;;;;;5044152;28;20040;-65
2024/01/05 02:51:47;;;;;;;21.13;8.80;;;;;;;;;;5043057;28;20030;-65
2024/01/05 02:54:13;;;;;;;17.27;8.00;;;;;;;;;;5044583;28;20039;-65
2024/01/05 02:56:39;;;;;;;19.65;9.18;;;;;;;;;;5043253;28;20090;-64
2024/01/05 02:59:06;;;;;;;17.30;8.48;;;;;;;;;;5044321;28;20024;-64
2024/01/05 03:01:32;;;;;;;16.60;8.30;;;;;;;;;;5043487;28;20097;-65
2024/01/05 03:04:00;;;;;;;17.15;8.73;;;;;;;;;;5043943;28;20025;-65
2024/01/05 03:06:26;;;;;;;15.35;8.05;;;;;;;;;;5043647;28;20094;-65
2024/01/05 03:08:52;;;;;;;19.02;8.85;;;;;;;;;;5044988;28;20039;-65
2024/01/05 03:11:19;;;;;;;18.83;8.32;;;;;;;;;;5046505;28;20021;-64
2024/01/05 03:13:45;;;;;;;18.05;8.75;;;;;;;;;;5047489;28;20028;-64
2024/01/05 03:16:11;;;;;;;19.73;9.40;;;;;;;;;;5047453;28;20089;-65
2024/01/05 03:18:37;;;;;;;16.00;8.00;;;;;;;;;;5047834;28;20029;-64
2024/01/05 03:21:03;;;;;;;18.90;9.13;;;;;;;;;;5045715;28;20032;-64
2024/01/05 03:23:29;;;;;;;18.20;10.27;;;;;;;;;;5046365;28;20033;-65
2024/01/05 03:25:56;;;;;;;17.60;9.05;;;;;;;;;;5050123;28;20136;-64
2024/01/05 03:28:24;;;;;;;18.25;8.93;;;;;;;;;;5046406;28;20028;-64
2024/01/05 03:30:50;;;;;;;24.25;10.90;;;;;;;;;;5047724;28;20024;-65
2024/01/05 03:33:16;;;;;;;18.85;9.32;;;;;;;;;;5046508;28;20048;-65
2024/01/05 03:35:42;;;;;;;16.00;8.77;;;;;;;;;;5046184;28;20043;-65
2024/01/05 03:38:08;;;;;;;17.38;8.65;;;;;;;;;;5046284;28;21772;-65
2024/01/05 03:40:34;;;;;;;17.00;8.35;;;;;;;;;;5046864;28;20091;-64
2024/01/05 03:43:00;;;;;;;19.90;9.60;;;;;;;;;;5046933;28;20487;-65
2024/01/05 03:45:26;;;;;;;16.77;8.98;;;;;;;;;;5046872;28;20032;-64
2024/01/05 03:47:52;;;;;;;21.15;9.27;;;;;;;;;;5047299;28;20912;-65
2024/01/05 03:50:19;;;;;;;17.98;8.65;;;;;;;;;;5046017;28;20043;-64
2024/01/05 03:52:45;;;;;;;19.45;9.15;;;;;;;;;;5046900;28;20395;-64
2024/01/05 03:55:11;;;;;;;17.58;8.85;;;;;;;;;;5046549;28;20033;-64
2024/01/05 03:57:37;;;;;;;20.77;9.93;;;;;;;;;;5046827;28;20032;-64
2024/01/05 04:00:03;;;;;;;20.48;8.45;;;;;;;;;;5046122;28;20028;-64
2024/01/05 04:02:29;;;;;;;17.65;8.68;;;;;;;;;;5044926;28;20087;-64
2024/01/05 04:04:55;;;;;;;19.98;9.43;;;;;;;;;;5058995;28;20086;-64
2024/01/05 04:07:21;;;;;;;15.38;8.07;;;;;;;;;;5045370;28;20043;-64
2024/01/05 04:09:49;;;;;;;18.92;8.68;;;;;;;;;;5047198;28;20042;-64
2024/01/05 04:12:17;;;;;;;16.02;8.15;;;;;;;;;;5046254;28;20042;-64
2024/01/05 04:14:44;;;;;;;21.27;9.65;;;;;;;;;;5045591;28;20083;-64
2024/01/05 04:17:11;;;;;;;22.45;8.90;;;;;;;;;;5047306;28;20149;-64
2024/01/05 04:19:37;;;;;;;18.70;9.25;;;;;;;;;;5045811;28;20503;-64
2024/01/05 04:22:07;;;;;;;19.65;9.00;;;;;;;;;;5045750;28;20040;-64
2024/01/05 04:24:33;;;;;;;16.95;8.70;;;;;;;;;;5046245;28;20030;-64
2024/01/05 04:26:59;;;;;;;15.88;7.55;;;;;;;;;;5046190;28;20034;-64
2024/01/05 04:29:25;;;;;;;14.48;7.03;;;;;;;;;;5046038;28;20041;-64
2024/01/05 04:31:52;;;;;;;18.17;8.43;;;;;;;;;;5046195;28;20703;-64
2024/01/05 04:34:18;;;;;;;15.77;8.02;;;;;;;;;;5046930;28;20036;-65
2024/01/05 04:36:44;;;;;;;16.67;8.27;;;;;;;;;;5047213;28;20037;-65
2024/01/05 04:39:10;;;;;;;17.38;8.15;;;;;;;;;;5047077;28;20040;-65
2024/01/05 04:41:36;;;;;;;15.27;8.20;;;;;;;;;;5046608;28;20151;-65
2024/01/05 04:44:03;;;;;;;16.85;8.02;;;;;;;;;;5047279;28;20040;-64
2024/01/05 04:46:29;;;;;;;17.80;8.43;;;;;;;;;;5045965;28;20119;-64
2024/01/05 04:48:55;;;;;;;18.60;8.02;;;;;;;;;;5045275;28;20636;-64
2024/01/05 04:51:22;;;;;;;19.05;7.90;;;;;;;;;;5045799;28;20060;-64
2024/01/05 04:53:49;;;;;;;15.15;7.47;;;;;;;;;;5045625;28;21090;-64
2024/01/05 04:56:16;;;;;;;13.55;6.80;;;;;;;;;;5045891;28;20044;-65
2024/01/05 04:58:42;;;;;;;15.50;7.13;;;;;;;;;;5045903;28;20163;-64
2024/01/05 05:01:08;;;;;;;13.43;7.43;;;;;;;;;;5045015;28;20123;-64
2024/01/05 05:03:34;;;;;;;16.77;7.78;;;;;;;;;;5045748;28;20032;-65
2024/01/05 05:06:00;;;;;;;15.98;7.72;;;;;;;;;;5045289;28;20029;-65
2024/01/05 05:08:26;;;;;;;14.82;7.28;;;;;;;;;;5046217;28;20082;-65
2024/01/05 05:10:52;;;;;;;17.02;7.72;;;;;;;;;;5046355;28;20044;-65
2024/01/05 05:13:18;;;;;;;13.52;7.30;;;;;;;;;;5046101;28;20519;-65
2024/01/05 05:15:45;;;;;;;14.35;7.38;;;;;;;;;;5040097;28;20594;-65
2024/01/05 05:18:11;;;;;;;16.30;7.50;;;;;;;;;;5043877;28;20993;-65
2024/01/05 05:20:37;;;;;;;14.95;6.78;;;;;;;;;;5047017;28;20044;-65
2024/01/05 05:23:03;;;;;;;14.23;7.40;;;;;;;;;;5045086;28;20110;-65
2024/01/05 05:25:29;;;;;;;16.08;7.88;;;;;;;;;;5045805;28;20031;-65
2024/01/05 05:27:55;;;;;;;11.88;6.35;;;;;;;;;;5045432;28;20068;-65
2024/01/05 05:30:22;;;;;;;15.07;7.68;;;;;;;;;;5045143;28;20047;-65
2024/01/05 05:32:48;;;;;;;12.45;7.15;;;;;;;;;;5045239;28;20033;-65
2024/01/05 05:35:14;;;;;;;12.52;6.35;;;;;;;;;;5045265;28;20845;-65
2024/01/05 05:37:40;;;;;;;13.00;6.85;;;;;;;;;;5046165;28;20698;-65
2024/01/05 05:40:06;;;;;;;14.55;7.63;;;;;;;;;;5047222;28;20432;-65
2024/01/05 05:42:32;;;;;;;13.93;7.38;;;;;;;;;;5046626;28;20040;-65
2024/01/05 05:44:58;;;;;;;13.55;7.03;;;;;;;;;;5046497;28;20047;-65
2024/01/05 05:47:24;;;;;;;12.63;7.60;;;;;;;;;;5046833;28;20033;-65
2024/01/05 05:49:51;;;;;;;13.18;6.70;;;;;;;;;;5045327;28;20042;-65
2024/01/05 05:52:17;;;;;;;15.23;7.57;;;;;;;;;;5047383;28;20036;-65
2024/01/05 05:54:43;;;;;;;13.45;6.93;;;;;;;;;;5046616;28;20044;-65
2024/01/05 05:57:09;;;;;;;12.77;6.90;;;;;;;;;;5046825;28;20032;-65
2024/01/05 05:59:35;;;;;;;15.23;7.35;;;;;;;;;;5046890;28;20611;-65
2024/01/05 06:02:01;;;;;;;13.40;7.43;;;;;;;;;;5046899;28;20933;-65
2024/01/05 06:04:27;;;;;;;15.07;7.78;;;;;;;;;;5059608;28;20036;-65
2024/01/05 06:06:53;;;;;;;18.38;8.07;;;;;;;;;;5046619;28;20036;-65
2024/01/05 06:09:19;;;;;;;11.93;7.35;;;;;;;;;;5046500;28;20032;-65
2024/01/05 06:11:45;;;;;;;11.95;7.05;;;;;;;;;;5046887;28;20044;-65
2024/01/05 06:14:11;;;;;;;12.77;7.10;;;;;;;;;;5046159;28;20052;-65
2024/01/05 06:16:37;;;;;;;13.27;7.28;;;;;;;;;;5046912;28;20041;-65
2024/01/05 06:19:03;;;;;;;13.65;7.43;;;;;;;;;;5047863;28;20044;-65
2024/01/05 06:21:29;;;;;;;18.73;8.57;;;;;;;;;;5047731;28;20033;-65
2024/01/05 06:23:55;;;;;;;14.10;7.75;;;;;;;;;;5047221;28;20024;-65
2024/01/05 06:26:21;;;;;;;13.13;7.55;;;;;;;;;;5047507;28;20032;-65
2024/01/05 06:28:47;;;;;;;14.00;8.10;;;;;;;;;;5046150;28;20071;-65
2024/01/05 06:31:14;;;;;;;14.02;8.05;;;;;;;;;;5047885;28;20033;-65
2024/01/05 06:33:41;;;;;;;14.52;7.65;;;;;;;;;;5047312;28;20703;-65
2024/01/05 06:36:07;;;;;;;17.13;9.27;;;;;;;;;;5048146;28;20056;-65
2024/01/05 06:38:33;;;;;;;14.25;8.43;;;;;;;;;;5048252;28;20035;-66
2024/01/05 06:40:59;;;;;;;17.38;8.32;;;;;;;;;;5048113;28;20025;-65
2024/01/05 06:43:25;;;;;;;14.75;8.32;;;;;;;;;;5049006;28;20155;-66
2024/01/05 06:45:51;;;;;;;14.23;8.65;;;;;;;;;;5053835;28;20848;-66
2024/01/05 06:48:17;;;;;;;14.00;8.60;;;;;;;;;;5053730;28;20045;-66
2024/01/05 06:50:43;;;;;;;15.63;8.93;;;;;;;;;;5053254;28;20044;-66
2024/01/05 06:53:09;;;;;;;17.48;9.70;;;;;;;;;;5054455;28;20040;-66
2024/01/05 06:55:35;;;;;;;16.40;9.25;;;;;;;;;;5052901;28;20032;-67
2024/01/05 06:58:02;;;;;;;14.95;8.93;;;;;;;;;;5053559;28;20172;-66
2024/01/05 07:00:28;;;;;;;16.33;9.73;;;;;;;;;;5052998;28;20029;-65
2024/01/05 07:02:55;;;;;;;21.40;10.13;;;;;;;;;;5053175;28;20519;-65
2024/01/05 07:05:21;;;;;;;16.13;9.70;;;;;;;;;;5052990;28;20603;-65
2024/01/05 07:07:47;;;;;;;15.50;8.93;;;;;;;;;;5052008;28;20028;-65
2024/01/05 07:10:13;;;;;;;15.85;9.40;;;;;;;;;;5052463;28;20039;-65
2024/01/05 07:12:39;;;;;;;16.40;9.55;;;;;;;;;;5051636;28;20039;-65
2024/01/05 07:15:06;;;;;;;19.20;9.30;;;;;;;;;;5051150;28;20426;-65
2024/01/05 07:17:32;;;;;;;15.52;8.82;;;;;;;;;;5051071;28;20078;-65
2024/01/05 07:19:58;;;;;;;16.65;9.60;;;;;;;;;;5054140;28;20099;-65
2024/01/05 07:22:25;;;;;;;14.70;7.97;;;;;;;;;;5052110;28;20071;-65
2024/01/05 07:24:51;;;;;;;13.90;8.15;;;;;;;;;;5053155;28;20036;-65
2024/01/05 07:27:17;;;;;;;13.75;7.63;;;;;;;;;;5052475;28;20029;-65
2024/01/05 07:29:43;;;;;;;12.68;7.80;;;;;;;;;;5052635;28;20024;-65
2024/01/05 07:32:09;;;;;;;13.32;8.60;;;;;;;;;;5053091;28;20044;-65
2024/01/05 07:34:35;;;;;;;17.15;8.70;;;;;;;;;;5052844;28;20482;-65
2024/01/05 07:37:01;;;;;;;20.15;9.23;;;;;;;;;;5051963;28;20036;-65
2024/01/05 07:39:27;;;;;;;14.93;8.70;;;;;;;;;;5052403;28;20040;-65
2024/01/05 07:41:54;;;;;;;15.25;8.68;;;;;;;;;;5051729;28;20032;-65
2024/01/05 07:44:20;;;;;;;14.05;8.80;;;;;;;;;;5050883;28;20036;-65
2024/01/05 07:46:46;;;;;;;16.20;10.13;;;;;;;;;;5050711;28;20029;-64
2024/01/05 07:49:12;;;;;;;16.65;9.70;;;;;;;;;;5051455;28;20110;-65
2024/01/05 07:51:38;;;;;;;16.38;10.10;;;;;;;;;;5051497;28;20048;-65
2024/01/05 07:54:04;;;;;;;16.40;10.02;;;;;;;;;;5051937;28;20029;-65
2024/01/05 07:56:30;;;;;;;19.23;10.35;;;;;;;;;;5051552;28;20089;-64
2024/01/05 07:58:56;;;;;;;19.95;10.65;;;;;;;;;;5049703;28;20082;-65
2024/01/05 08:01:22;;;;;;;19.83;10.45;;;;;;;;;;5051084;28;20049;-65
2024/01/05 08:03:48;;;;;;;19.52;10.68;;;;;;;;;;5051206;28;20032;-65
2024/01/05 08:06:18;;;;;;;19.90;11.13;;;;;;;;;;5052734;28;20032;-64
2024/01/05 08:08:48;;;;;;;17.60;11.10;;;;;;;;;;5052202;28;20028;-65
2024/01/05 08:11:15;;;;;;;17.50;10.57;;;;;;;;;;5051351;28;20028;-65
2024/01/05 08:13:44;;;;;;;20.25;11.30;;;;;;;;;;5052373;28;20147;-65
2024/01/05 08:16:11;;;;;;;21.65;12.13;;;;;;;;;;5051320;28;20037;-65
2024/01/05 08:18:37;;;;;;;19.50;10.90;;;;;;;;;;5051441;28;20761;-65
2024/01/05 08:21:03;;;;;;;19.05;11.52;;;;;;;;;;5051689;28;20060;-65
2024/01/05 08:23:30;;;;;;;20.92;12.13;;;;;;;;;;5054004;28;20131;-65
2024/01/05 08:25:57;;;;;;;20.00;12.43;;;;;;;;;;5052928;28;20032;-65
2024/01/05 08:28:23;;;;;;;18.42;11.93;;;;;;;;;;5054230;28;20036;-65
2024/01/05 08:30:49;;;;;;;26.55;13.35;;;;;;;;;;5052782;28;20042;-65
2024/01/05 08:33:15;;;;;;;26.73;14.52;;;;;;;;;;5050303;28;20033;-65
2024/01/05 08:35:42;;;;;;;30.73;14.23;;;;;;;;;;5050210;28;20039;-65
2024/01/05 08:38:08;;;;;;;25.15;13.38;;;;;;;;;;5050560;28;20045;-65
2024/01/05 08:40:34;;;;;;;22.25;13.98;;;;;;;;;;5046039;28;20070;-61
2024/01/05 08:43:00;;;;;;;25.20;13.05;;;;;;;;;;5042984;28;20040;-61
2024/01/05 08:45:34;;;;;;;24.40;13.30;;;;;;;;;;5045746;28;20044;-61
2024/01/05 08:48:00;;;;;;;23.88;14.38;;;;;;;;;;5044610;28;20655;-62
2024/01/05 08:50:26;;;;;;;22.33;13.13;;;;;;;;;;5044899;28;20033;-62
2024/01/05 08:52:52;;;;;;;22.60;14.32;;;;;;;;;;5044785;28;21169;-61
2024/01/05 08:55:18;;;;;;;26.45;13.65;;;;;;;;;;5045642;28;20159;-61
2024/01/05 08:57:45;;;;;;;24.15;13.50;;;;;;;;;;5046306;28;20032;-62
2024/01/05 09:00:11;;;;;;;22.88;13.20;;;;;;;;;;5045697;28;20051;-62
2024/01/05 09:02:38;;;;;;;24.02;13.57;;;;;;;;;;5045259;28;20048;-62
2024/01/05 09:05:04;;;;;;;22.00;13.00;;;;;;;;;;5044675;28;20036;-62
2024/01/05 09:07:33;;;;;;;20.70;12.30;;;;;;;;;;5044776;28;20093;-62
2024/01/05 09:10:00;;;;;;;27.05;13.23;;;;;;;;;;5045776;28;21385;-62
2024/01/05 09:12:26;;;;;;;26.90;13.80;;;;;;;;;;5044980;28;20043;-62
2024/01/05 09:14:52;;;;;;;23.65;11.30;;;;;;;;;;5045486;28;20067;-61
2024/01/05 09:17:18;;;;;;;27.75;11.57;;;;;;;;;;5045752;28;20044;-61
2024/01/05 09:19:44;;;;;;;19.27;11.10;;;;;;;;;;5042906;28;20032;-61
2024/01/05 09:22:11;;;;;;;18.42;10.82;;;;;;;;;;5042848;28;20157;-61
2024/01/05 09:24:37;;;;;;;18.15;10.35;;;;;;;;;;5044824;28;20075;-61
2024/01/05 09:27:04;;;;;;;17.05;10.35;;;;;;;;;;5044863;28;20033;-61
2024/01/05 09:29:31;;;;;;;18.75;9.27;;;;;;;;;;5045222;28;20044;-61
2024/01/05 09:31:57;;;;;;;19.63;10.18;;;;;;;;;;5044149;28;20636;-61
2024/01/05 09:34:23;;;;;;;16.42;10.07;;;;;;;;;;5045095;28;20043;-61
2024/01/05 09:36:49;;;;;;;18.05;9.85;;;;;;;;;;5044674;28;20033;-61
2024/01/05 09:39:15;;;;;;;17.02;9.80;;;;;;;;;;5044982;28;20135;-61
2024/01/05 09:41:42;;;;;;;17.67;10.13;;;;;;;;;;5044351;28;20767;-61
2024/01/05 09:44:10;;;;;;;23.98;10.60;;;;;;;;;;5045301;28;21213;-60
2024/01/05 09:46:38;;;;;;;19.88;9.82;;;;;;;;;;5045320;28;21305;-61
2024/01/05 09:49:04;;;;;;;20.45;10.27;;;;;;;;;;5045000;28;20669;-61
2024/01/05 09:51:31;;;;;;;18.25;10.48;;;;;;;;;;5042931;28;20032;-60
2024/01/05 09:53:57;;;;;;;18.60;9.32;;;;;;;;;;5043307;28;20029;-60
2024/01/05 09:56:24;;;;;;;19.95;11.38;;;;;;;;;;5044332;28;20032;-61
2024/01/05 09:58:51;;;;;;;21.38;10.57;;;;;;;;;;5043625;28;20029;-60
2024/01/05 10:01:30;;;;;;;19.92;9.43;;;;;;;;;;5044506;28;20599;-60
2024/01/05 10:03:58;;;;;;;20.63;10.48;;;;;;;;;;5043667;28;20068;-60
2024/01/05 10:06:25;;;;;;;22.20;10.10;;;;;;;;;;5042219;28;20051;-60
2024/01/05 10:08:55;;;;;;;17.35;10.02;;;;;;;;;;5043358;28;20032;-60
2024/01/05 10:11:42;;;;;;;19.40;9.82;;;;;;;;;;5044616;28;20032;-60
2024/01/05 10:14:09;;;;;;;17.13;9.20;;;;;;;;;;5045095;28;20032;-60
2024/01/05 10:16:39;;;;;;;18.27;10.40;;;;;;;;;;5045157;28;20037;-60
2024/01/05 10:19:17;;;;;;;19.33;9.80;;;;;;;;;;5048112;28;20033;-60
2024/01/05 10:21:44;;;;;;;17.85;10.05;;;;;;;;;;5048704;28;20087;-60
2024/01/05 10:24:14;;;;;;;18.52;10.32;;;;;;;;;;5049232;28;20047;-60
2024/01/05 10:26:41;;;;;;;20.55;10.93;;;;;;;;;;5048128;28;20024;-60
2024/01/05 10:29:14;;;;;;;21.77;10.35;;;;;;;;;;5047974;28;20070;-60
2024/01/05 10:31:40;;;;;;;22.35;11.48;;;;;;;;;;5048258;28;20036;-60
2024/01/05 10:34:07;;;;;;;19.35;10.88;;;;;;;;;;5048320;28;20028;-60
2024/01/05 10:36:33;;;;;;;21.13;11.27;;;;;;;;;;5047412;28;20029;-60
2024/01/05 10:38:59;;;;;;;22.30;11.90;;;;;;;;;;5046128;28;20035;-60
2024/01/05 10:41:26;;;;;;;22.75;12.00;;;;;;;;;;5037243;28;20036;-60
2024/01/05 10:43:53;;;;;;;22.17;12.60;;;;;;;;;;5039249;28;20037;-60
2024/01/05 10:46:20;;;;;;;20.60;11.20;;;;;;;;;;5040233;28;20032;-60
2024/01/05 10:48:46;;;;;;;21.13;12.25;;;;;;;;;;5039502;28;20597;-60
2024/01/05 10:51:15;;;;;;;22.77;12.57;;;;;;;;;;5040021;28;20024;-62
2024/01/05 10:53:43;;;;;;;22.83;12.55;;;;;;;;;;5038784;28;20048;-62
2024/01/05 10:56:10;;;;;;;24.70;12.35;;;;;;;;;;5039864;28;20052;-62
2024/01/05 10:58:36;;;;;;;21.55;12.45;;;;;;;;;;5039330;28;20085;-62
2024/01/05 11:01:03;;;;;;;23.17;12.45;;;;;;;;;;5040202;28;20149;-62
2024/01/05 11:03:41;;;;;;;22.83;11.77;;;;;;;;;;5039550;28;20053;-62
2024/01/05 11:06:08;;;;;;;18.73;11.07;;;;;;;;;;5038379;28;20479;-62
2024/01/05 11:08:44;;;;;;;20.92;11.55;;;;;;;;;;5037040;28;20139;-62
2024/01/05 11:11:10;;;;;;;21.98;12.48;;;;;;;;;;5038428;28;20838;-62
2024/01/05 11:13:59;;;;;;;20.55;11.23;;;;;;;;;;5038855;28;20025;-62
2024/01/05 11:16:29;;;;;;;25.17;11.30;;;;;;;;;;5035254;28;20056;-62
2024/01/05 11:19:10;;;;;;;20.25;11.40;;;;;;;;;;5038211;28;20037;-62
2024/01/05 11:21:44;;;;;;;20.10;11.02;;;;;;;;;;5037593;28;20059;-62
2024/01/05 11:24:10;;;;;;;;;;;;;;;;;;5038860;28;20024;-62
2024/01/05 11:26:36;;;;;;;21.60;11.52;;;;;;;;;;5038779;28;20008;-62
2024/01/05 11:29:03;;;;;;;19.30;10.77;;;;;;;;;;5038049;28;20064;-62
2024/01/05 11:31:47;;;;;;;20.50;10.73;;;;;;;;;;5037679;28;20039;-62
2024/01/05 11:34:32;;;;;;;22.10;11.57;;;;;;;;;;5037999;28;20411;-62
2024/01/05 11:36:58;;;;;;;20.40;11.18;;;;;;;;;;5033515;28;20049;-62
2024/01/05 11:39:46;;;;;;;19.42;11.15;;;;;;;;;;5038086;28;20151;-62
2024/01/05 11:42:28;;;;;;;22.88;10.90;;;;;;;;;;5031942;28;20066;-62
2024/01/05 11:44:57;;;;;;;22.75;12.25;;;;;;;;;;5031600;28;20021;-63
2024/01/05 11:47:42;;;;;;;21.52;11.27;;;;;;;;;;5033018;28;20031;-63
2024/01/05 11:50:24;;;;;;;20.48;10.77;;;;;;;;;;5031447;28;20078;-62
2024/01/05 11:53:10;;;;;;;21.90;11.57;;;;;;;;;;5032013;28;20125;-63
2024/01/05 11:55:40;;;;;;;20.98;11.23;;;;;;;;;;5033055;28;20047;-67
2024/01/05 11:58:12;;;;;;;22.15;10.90;;;;;;;;;;5033213;28;20828;-67
2024/01/05 12:00:44;;;;;;;22.92;11.38;;;;;;;;;;5032888;28;20123;-67
2024/01/05 12:03:10;;;;;;;20.25;11.35;;;;;;;;;;5030025;28;20111;-67
2024/01/05 12:05:38;;;;;;;25.80;12.63;;;;;;;;;;5032406;28;20042;-67
2024/01/05 12:08:05;;;;;;;25.08;11.82;;;;;;;;;;5033263;28;20033;-67
2024/01/05 12:10:31;;;;;;;25.17;12.93;;;;;;;;;;5032323;28;20036;-67
2024/01/05 12:12:58;;;;;;;22.45;11.85;;;;;;;;;;5031279;28;20033;-68
2024/01/05 12:15:25;;;;;;;21.27;12.38;;;;;;;;;;5030714;28;20032;-68
2024/01/05 12:18:01;;;;;;;26.23;13.95;;;;;;;;;;5031443;28;20639;-67
2024/01/05 12:20:27;;;;;;;22.02;12.48;;;;;;;;;;5030290;28;20028;-68
2024/01/05 12:22:53;;;;;;;27.80;12.73;;;;;;;;;;5028507;28;20036;-67
2024/01/05 12:25:19;;;;;;;22.27;12.75;;;;;;;;;;5028588;28;20040;-68
2024/01/05 12:27:45;;;;;;;27.20;13.98;;;;;;;;;;5032068;28;20726;-68
2024/01/05 12:30:12;;;;;;;20.77;12.52;;;;;;;;;;5033468;28;20457;-67
2024/01/05 12:32:38;;;;;;;24.33;13.27;;;;;;;;;;5032402;28;20040;-68
2024/01/05 12:35:05;;;;;;;20.80;12.10;;;;;;;;;;5032237;28;21647;-68
2024/01/05 12:37:34;;;;;;;21.63;11.70;;;;;;;;;;5033179;28;20045;-68
2024/01/05 12:40:10;;;;;;;24.60;12.93;;;;;;;;;;5031753;28;20029;-67
2024/01/05 12:42:37;;;;;;;21.65;11.88;;;;;;;;;;5036269;28;20040;-68
2024/01/05 12:45:08;;;;;;;19.88;11.45;;;;;;;;;;5029994;28;20048;-68
2024/01/05 12:47:34;;;;;;;16.88;11.35;;;;;;;;;;5035378;28;20668;-68
2024/01/05 12:50:00;;;;;;;20.33;11.82;;;;;;;;;;5035062;28;20033;-68
2024/01/05 12:52:34;;;;;;;19.95;11.50;;;;;;;;;;5035270;28;20060;-68
2024/01/05 12:55:00;;;;;;;20.23;11.80;;;;;;;;;;5035551;28;20037;-68
2024/01/05 12:57:27;;;;;;;21.70;12.23;;;;;;;;;;5048684;28;20086;-68
2024/01/05 13:00:00;;;;;;;21.65;11.85;;;;;;;;;;5035305;28;20033;-68
2024/01/05 13:02:26;;;;;;;22.80;12.77;;;;;;;;;;5034817;28;20080;-68
2024/01/05 13:04:52;;;;;;;16.75;10.75;;;;;;;;;;5034886;28;20514;-68
2024/01/05 13:07:18;;;;;;;20.35;11.68;;;;;;;;;;5034986;28;20152;-68
2024/01/05 13:09:44;;;;;;;17.83;11.02;;;;;;;;;;5033683;28;20653;-68
2024/01/05 13:12:10;;;;;;;21.60;11.13;;;;;;;;;;5051175;28;20036;-68
2024/01/05 13:14:36;;;;;;;19.70;10.88;;;;;;;;;;5036680;28;20039;-68
2024/01/05 13:17:04;;;;;;;20.00;9.80;;;;;;;;;;5036785;28;20051;-68
2024/01/05 13:19:30;;;;;;;16.33;10.00;;;;;;;;;;5032708;28;20933;-68
2024/01/05 13:21:56;;;;;;;16.30;9.70;;;;;;;;;;5031050;28;21835;-68
2024/01/05 13:24:23;;;;;;;18.05;10.77;;;;;;;;;;5033079;28;20071;-68
2024/01/05 13:26:49;;;;;;;16.67;9.85;;;;;;;;;;5034219;28;20098;-68
2024/01/05 13:29:15;;;;;;;17.40;10.40;;;;;;;;;;5033746;28;20036;-68
2024/01/05 13:31:41;;;;;;;18.00;9.88;;;;;;;;;;5032966;28;20039;-69
2024/01/05 13:34:07;;;;;;;16.40;9.27;;;;;;;;;;5034578;28;20082;-68
2024/01/05 13:36:33;;;;;;;15.90;9.25;;;;;;;;;;5032622;28;20040;-68
2024/01/05 13:39:00;;;;;;;17.80;9.00;;;;;;;;;;5034204;28;20040;-68
2024/01/05 13:41:26;;;;;;;16.85;9.05;;;;;;;;;;5033709;28;20036;-68
2024/01/05 13:43:53;;;;;;;13.77;8.75;;;;;;;;;;5034177;28;20040;-69
2024/01/05 13:46:19;;;;;;;13.95;7.85;;;;;;;;;;5034642;28;20040;-68
2024/01/05 13:48:45;;;;;;;14.95;8.07;;;;;;;;;;5036983;28;20679;-69
2024/01/05 13:51:11;;;;;;;12.93;6.70;;;;;;;;;;5032905;28;20036;-68
2024/01/05 13:53:37;;;;;;;13.63;8.23;;;;;;;;;;5033531;28;20032;-68
2024/01/05 13:56:03;;;;;;;14.68;7.82;;;;;;;;;;5035461;28;20032;-68
2024/01/05 13:58:31;;;;;;;12.80;7.97;;;;;;;;;;5033994;28;20037;-68
2024/01/05 14:00:59;;;;;;;11.63;6.90;;;;;;;;;;5034515;28;20114;-68
2024/01/05 14:03:28;;;;;;;14.38;7.25;;;;;;;;;;5032923;28;20072;-69
2024/01/05 14:05:54;;;;;;;13.32;7.55;;;;;;;;;;5034275;28;20033;-68
2024/01/05 14:08:20;;;;;;;16.10;8.43;;;;;;;;;;5034944;28;20028;-68
2024/01/05 14:10:46;;;;;;;13.35;7.07;;;;;;;;;;5032560;28;20082;-69
2024/01/05 14:13:12;;;;;;;13.02;7.60;;;;;;;;;;5032577;28;20041;-69
2024/01/05 14:15:38;;;;;;;13.40;7.72;;;;;;;;;;5033730;28;20037;-69
2024/01/05 14:18:05;;;;;;;13.23;8.02;;;;;;;;;;5034853;28;20067;-69
2024/01/05 14:20:31;;;;;;;13.45;7.70;;;;;;;;;;5033591;28;20063;-69
2024/01/05 14:22:57;;;;;;;14.52;7.13;;;;;;;;;;5035478;28;20051;-69
2024/01/05 14:25:23;;;;;;;12.52;6.75;;;;;;;;;;5033852;28;20032;-69